sensor_id;sensor_type;location;lat;lon;timestamp;P1;durP1;ratioP1;P2;durP2;ratioP2
69769;SDS011;57282;52.514;13.458;2022-08-30T00:00:34;3.07;;;1.17;;
69769;SDS011;57282;52.514;13.458;2022-08-30T00:03:18;2.85;;;1.05;;
69769;SDS011;57282;52.514;13.458;2022-08-30T00:05:45;4.18;;;1.52;;
69769;SDS011;57282;52.514;13.458;2022-08-30T00:08:13;2.50;;;1.08;;
69769;SDS011;57282;52.514;13.458;2022-08-30T00:10:40;3.03;;;1.35;;
69769;SDS011;57282;52.514;13.458;2022-08-30T00:13:11;3.17;;;1.23;;
69769;SDS011;57282;52.514;13.458;2022-08-30T00:15:39;2.53;;;1.02;;
69769;SDS011;57282;52.514;13.458;2022-08-30T00:18:07;4.13;;;2.00;;
69769;SDS011;57282;52.514;13.458;2022-08-30T00:20:36;4.70;;;1.65;;
69769;SDS011;57282;52.514;13.458;2022-08-30T00:23:04;2.72;;;1.33;;
69769;SDS011;57282;52.514;13.458;2022-08-30T00:25:31;4.53;;;1.50;;
69769;SDS011;57282;52.514;13.458;2022-08-30T00:27:59;2.55;;;1.38;;
69769;SDS011;57282;52.514;13.458;2022-08-30T00:30:28;3.03;;;1.63;;
69769;SDS011;57282;52.514;13.458;2022-08-30T00:32:56;3.20;;;2.00;;
69769;SDS011;57282;52.514;13.458;2022-08-30T00:35:23;3.05;;;1.40;;
69769;SDS011;57282;52.514;13.458;2022-08-30T00:37:52;4.57;;;1.23;;
69769;SDS011;57282;52.514;13.458;2022-08-30T00:40:19;3.60;;;1.85;;
69769;SDS011;57282;52.514;13.458;2022-08-30T00:42:47;4.05;;;1.88;;
69769;SDS011;57282;52.514;13.458;2022-08-30T00:45:16;3.25;;;1.50;;
69769;SDS011;57282;52.514;13.458;2022-08-30T00:47:50;3.17;;;1.42;;
69769;SDS011;57282;52.514;13.458;2022-08-30T00:50:18;2.73;;;1.43;;
69769;SDS011;57282;52.514;13.458;2022-08-30T00:52:51;2.90;;;1.65;;
69769;SDS011;57282;52.514;13.458;2022-08-30T00:55:23;4.63;;;1.90;;
69769;SDS011;57282;52.514;13.458;2022-08-30T00:57:52;3.90;;;1.90;;
69769;SDS011;57282;52.514;13.458;2022-08-30T01:00:24;4.22;;;1.88;;
69769;SDS011;57282;52.514;13.458;2022-08-30T01:02:52;3.10;;;1.53;;
69769;SDS011;57282;52.514;13.458;2022-08-30T01:05:20;4.82;;;1.85;;
69769;SDS011;57282;52.514;13.458;2022-08-30T01:07:48;5.68;;;2.25;;
69769;SDS011;57282;52.514;13.458;2022-08-30T01:10:15;3.83;;;2.03;;
69769;SDS011;57282;52.514;13.458;2022-08-30T01:12:43;6.95;;;2.60;;
69769;SDS011;57282;52.514;13.458;2022-08-30T01:15:12;3.87;;;1.70;;
69769;SDS011;57282;52.514;13.458;2022-08-30T01:17:40;3.47;;;1.80;;
69769;SDS011;57282;52.514;13.458;2022-08-30T01:20:13;6.70;;;2.70;;
69769;SDS011;57282;52.514;13.458;2022-08-30T01:22:54;5.00;;;2.35;;
69769;SDS011;57282;52.514;13.458;2022-08-30T01:25:33;4.88;;;2.13;;
69769;SDS011;57282;52.514;13.458;2022-08-30T01:28:03;4.23;;;2.20;;
69769;SDS011;57282;52.514;13.458;2022-08-30T01:30:35;5.18;;;2.17;;
69769;SDS011;57282;52.514;13.458;2022-08-30T01:33:05;6.35;;;2.78;;
69769;SDS011;57282;52.514;13.458;2022-08-30T01:35:34;4.57;;;2.80;;
69769;SDS011;57282;52.514;13.458;2022-08-30T01:38:16;6.35;;;3.20;;
69769;SDS011;57282;52.514;13.458;2022-08-30T01:40:45;5.83;;;2.37;;
69769;SDS011;57282;52.514;13.458;2022-08-30T01:43:15;11.52;;;6.63;;
69769;SDS011;57282;52.514;13.458;2022-08-30T01:45:43;6.32;;;3.47;;
69769;SDS011;57282;52.514;13.458;2022-08-30T01:48:10;5.68;;;3.25;;
69769;SDS011;57282;52.514;13.458;2022-08-30T01:50:39;5.63;;;2.92;;
69769;SDS011;57282;52.514;13.458;2022-08-30T01:53:07;6.67;;;2.87;;
69769;SDS011;57282;52.514;13.458;2022-08-30T01:55:36;6.28;;;3.35;;
69769;SDS011;57282;52.514;13.458;2022-08-30T01:58:03;6.70;;;3.53;;
69769;SDS011;57282;52.514;13.458;2022-08-30T02:00:30;13.50;;;3.85;;
69769;SDS011;57282;52.514;13.458;2022-08-30T02:02:57;7.97;;;4.18;;
69769;SDS011;57282;52.514;13.458;2022-08-30T02:05:24;6.87;;;3.20;;
69769;SDS011;57282;52.514;13.458;2022-08-30T02:07:51;8.43;;;3.42;;
69769;SDS011;57282;52.514;13.458;2022-08-30T02:10:19;6.95;;;3.55;;
69769;SDS011;57282;52.514;13.458;2022-08-30T02:12:47;7.85;;;3.80;;
69769;SDS011;57282;52.514;13.458;2022-08-30T02:15:13;7.20;;;4.07;;
69769;SDS011;57282;52.514;13.458;2022-08-30T02:17:41;6.63;;;3.70;;
69769;SDS011;57282;52.514;13.458;2022-08-30T02:20:08;7.28;;;3.75;;
69769;SDS011;57282;52.514;13.458;2022-08-30T02:22:37;7.80;;;4.43;;
69769;SDS011;57282;52.514;13.458;2022-08-30T02:25:04;8.25;;;4.20;;
69769;SDS011;57282;52.514;13.458;2022-08-30T02:27:35;8.60;;;3.90;;
69769;SDS011;57282;52.514;13.458;2022-08-30T02:30:05;8.17;;;3.70;;
69769;SDS011;57282;52.514;13.458;2022-08-30T02:32:34;5.78;;;3.38;;
69769;SDS011;57282;52.514;13.458;2022-08-30T02:35:01;6.78;;;3.85;;
69769;SDS011;57282;52.514;13.458;2022-08-30T02:37:29;5.43;;;3.60;;
69769;SDS011;57282;52.514;13.458;2022-08-30T02:39:56;5.97;;;3.08;;
69769;SDS011;57282;52.514;13.458;2022-08-30T02:42:26;5.03;;;2.80;;
69769;SDS011;57282;52.514;13.458;2022-08-30T02:44:52;4.80;;;2.97;;
69769;SDS011;57282;52.514;13.458;2022-08-30T02:47:22;6.38;;;3.20;;
69769;SDS011;57282;52.514;13.458;2022-08-30T02:49:48;7.07;;;2.85;;
69769;SDS011;57282;52.514;13.458;2022-08-30T02:52:16;5.70;;;2.80;;
69769;SDS011;57282;52.514;13.458;2022-08-30T02:54:44;6.20;;;2.50;;
69769;SDS011;57282;52.514;13.458;2022-08-30T02:57:11;5.55;;;3.60;;
69769;SDS011;57282;52.514;13.458;2022-08-30T02:59:38;5.57;;;3.22;;
69769;SDS011;57282;52.514;13.458;2022-08-30T03:02:08;4.82;;;3.25;;
69769;SDS011;57282;52.514;13.458;2022-08-30T03:04:37;5.50;;;3.30;;
69769;SDS011;57282;52.514;13.458;2022-08-30T03:07:04;4.37;;;2.80;;
69769;SDS011;57282;52.514;13.458;2022-08-30T03:09:32;5.07;;;2.78;;
69769;SDS011;57282;52.514;13.458;2022-08-30T03:11:58;5.10;;;3.35;;
69769;SDS011;57282;52.514;13.458;2022-08-30T03:14:25;4.90;;;3.03;;
69769;SDS011;57282;52.514;13.458;2022-08-30T03:16:52;5.80;;;3.47;;
69769;SDS011;57282;52.514;13.458;2022-08-30T03:19:21;5.37;;;3.33;;
69769;SDS011;57282;52.514;13.458;2022-08-30T03:21:52;7.38;;;3.58;;
69769;SDS011;57282;52.514;13.458;2022-08-30T03:24:19;5.00;;;3.38;;
69769;SDS011;57282;52.514;13.458;2022-08-30T03:26:46;6.25;;;3.70;;
69769;SDS011;57282;52.514;13.458;2022-08-30T03:29:13;8.23;;;3.97;;
69769;SDS011;57282;52.514;13.458;2022-08-30T03:31:40;7.27;;;2.97;;
69769;SDS011;57282;52.514;13.458;2022-08-30T03:34:07;5.45;;;4.07;;
69769;SDS011;57282;52.514;13.458;2022-08-30T03:36:35;7.03;;;3.85;;
69769;SDS011;57282;52.514;13.458;2022-08-30T03:39:03;7.38;;;3.45;;
69769;SDS011;57282;52.514;13.458;2022-08-30T03:41:30;6.10;;;3.90;;
69769;SDS011;57282;52.514;13.458;2022-08-30T03:43:57;5.60;;;3.77;;
69769;SDS011;57282;52.514;13.458;2022-08-30T03:46:25;5.82;;;3.60;;
69769;SDS011;57282;52.514;13.458;2022-08-30T03:48:52;6.78;;;3.83;;
69769;SDS011;57282;52.514;13.458;2022-08-30T03:51:21;6.00;;;4.03;;
69769;SDS011;57282;52.514;13.458;2022-08-30T03:53:48;5.90;;;3.67;;
69769;SDS011;57282;52.514;13.458;2022-08-30T03:56:17;6.33;;;3.43;;
69769;SDS011;57282;52.514;13.458;2022-08-30T03:58:44;6.30;;;3.63;;
69769;SDS011;57282;52.514;13.458;2022-08-30T04:01:13;10.05;;;4.25;;
69769;SDS011;57282;52.514;13.458;2022-08-30T04:03:39;7.57;;;4.30;;
69769;SDS011;57282;52.514;13.458;2022-08-30T04:06:06;7.15;;;3.75;;
69769;SDS011;57282;52.514;13.458;2022-08-30T04:08:33;7.07;;;3.80;;
69769;SDS011;57282;52.514;13.458;2022-08-30T04:11:00;8.27;;;4.15;;
69769;SDS011;57282;52.514;13.458;2022-08-30T04:13:29;11.20;;;6.28;;
69769;SDS011;57282;52.514;13.458;2022-08-30T04:15:57;8.32;;;4.63;;
69769;SDS011;57282;52.514;13.458;2022-08-30T04:18:24;6.13;;;3.50;;
69769;SDS011;57282;52.514;13.458;2022-08-30T04:20:51;6.33;;;3.73;;
69769;SDS011;57282;52.514;13.458;2022-08-30T04:23:18;8.65;;;4.45;;
69769;SDS011;57282;52.514;13.458;2022-08-30T04:25:45;7.78;;;4.70;;
69769;SDS011;57282;52.514;13.458;2022-08-30T04:28:13;8.10;;;4.35;;
69769;SDS011;57282;52.514;13.458;2022-08-30T04:30:42;9.23;;;4.97;;
69769;SDS011;57282;52.514;13.458;2022-08-30T04:33:10;6.63;;;4.03;;
69769;SDS011;57282;52.514;13.458;2022-08-30T04:35:40;7.63;;;4.68;;
69769;SDS011;57282;52.514;13.458;2022-08-30T04:38:08;7.72;;;4.50;;
69769;SDS011;57282;52.514;13.458;2022-08-30T04:40:35;6.95;;;3.42;;
69769;SDS011;57282;52.514;13.458;2022-08-30T04:43:02;7.10;;;4.22;;
69769;SDS011;57282;52.514;13.458;2022-08-30T04:45:29;7.40;;;4.47;;
69769;SDS011;57282;52.514;13.458;2022-08-30T04:47:59;7.68;;;4.50;;
69769;SDS011;57282;52.514;13.458;2022-08-30T04:50:25;10.57;;;5.20;;
69769;SDS011;57282;52.514;13.458;2022-08-30T04:52:52;10.05;;;5.60;;
69769;SDS011;57282;52.514;13.458;2022-08-30T04:55:19;13.32;;;6.05;;
69769;SDS011;57282;52.514;13.458;2022-08-30T04:57:48;11.43;;;6.33;;
69769;SDS011;57282;52.514;13.458;2022-08-30T05:00:15;11.48;;;5.38;;
69769;SDS011;57282;52.514;13.458;2022-08-30T05:02:45;10.48;;;5.80;;
69769;SDS011;57282;52.514;13.458;2022-08-30T05:05:15;10.20;;;4.95;;
69769;SDS011;57282;52.514;13.458;2022-08-30T05:07:59;12.30;;;5.35;;
69769;SDS011;57282;52.514;13.458;2022-08-30T05:10:30;10.03;;;5.50;;
69769;SDS011;57282;52.514;13.458;2022-08-30T05:12:58;10.23;;;5.60;;
69769;SDS011;57282;52.514;13.458;2022-08-30T05:15:25;9.77;;;5.32;;
69769;SDS011;57282;52.514;13.458;2022-08-30T05:17:52;9.35;;;5.30;;
69769;SDS011;57282;52.514;13.458;2022-08-30T05:20:20;8.57;;;5.38;;
69769;SDS011;57282;52.514;13.458;2022-08-30T05:22:47;10.47;;;5.30;;
69769;SDS011;57282;52.514;13.458;2022-08-30T05:25:15;8.32;;;4.63;;
69769;SDS011;57282;52.514;13.458;2022-08-30T05:27:44;10.27;;;5.65;;
69769;SDS011;57282;52.514;13.458;2022-08-30T05:30:11;8.75;;;5.00;;
69769;SDS011;57282;52.514;13.458;2022-08-30T05:32:39;10.45;;;5.63;;
69769;SDS011;57282;52.514;13.458;2022-08-30T05:35:07;11.03;;;4.93;;
69769;SDS011;57282;52.514;13.458;2022-08-30T05:37:38;9.35;;;4.45;;
69769;SDS011;57282;52.514;13.458;2022-08-30T05:40:05;9.30;;;5.18;;
69769;SDS011;57282;52.514;13.458;2022-08-30T05:42:34;8.20;;;4.68;;
69769;SDS011;57282;52.514;13.458;2022-08-30T05:45:06;10.40;;;5.15;;
69769;SDS011;57282;52.514;13.458;2022-08-30T05:47:35;8.47;;;4.67;;
69769;SDS011;57282;52.514;13.458;2022-08-30T05:50:05;8.00;;;4.32;;
69769;SDS011;57282;52.514;13.458;2022-08-30T05:52:34;7.82;;;4.75;;
69769;SDS011;57282;52.514;13.458;2022-08-30T05:55:04;8.18;;;4.38;;
69769;SDS011;57282;52.514;13.458;2022-08-30T05:57:33;10.40;;;4.82;;
69769;SDS011;57282;52.514;13.458;2022-08-30T06:00:03;8.37;;;4.17;;
69769;SDS011;57282;52.514;13.458;2022-08-30T06:02:34;9.85;;;5.40;;
69769;SDS011;57282;52.514;13.458;2022-08-30T06:05:01;7.47;;;4.88;;
69769;SDS011;57282;52.514;13.458;2022-08-30T06:07:29;9.23;;;4.70;;
69769;SDS011;57282;52.514;13.458;2022-08-30T06:09:57;9.40;;;5.03;;
69769;SDS011;57282;52.514;13.458;2022-08-30T06:12:26;7.93;;;4.50;;
69769;SDS011;57282;52.514;13.458;2022-08-30T06:14:53;8.02;;;4.53;;
69769;SDS011;57282;52.514;13.458;2022-08-30T06:17:19;7.47;;;4.60;;
69769;SDS011;57282;52.514;13.458;2022-08-30T06:19:47;8.43;;;4.78;;
69769;SDS011;57282;52.514;13.458;2022-08-30T06:22:13;10.20;;;4.93;;
69769;SDS011;57282;52.514;13.458;2022-08-30T06:24:40;9.67;;;4.47;;
69769;SDS011;57282;52.514;13.458;2022-08-30T06:27:08;9.50;;;5.38;;
69769;SDS011;57282;52.514;13.458;2022-08-30T06:29:38;8.70;;;5.10;;
69769;SDS011;57282;52.514;13.458;2022-08-30T06:32:05;11.27;;;6.45;;
69769;SDS011;57282;52.514;13.458;2022-08-30T06:34:32;8.68;;;5.35;;
69769;SDS011;57282;52.514;13.458;2022-08-30T06:36:58;10.90;;;4.87;;
69769;SDS011;57282;52.514;13.458;2022-08-30T06:39:25;8.82;;;5.07;;
69769;SDS011;57282;52.514;13.458;2022-08-30T06:41:52;9.88;;;6.25;;
69769;SDS011;57282;52.514;13.458;2022-08-30T06:44:19;9.27;;;5.32;;
69769;SDS011;57282;52.514;13.458;2022-08-30T06:46:49;8.40;;;5.57;;
69769;SDS011;57282;52.514;13.458;2022-08-30T06:49:16;10.87;;;5.87;;
69769;SDS011;57282;52.514;13.458;2022-08-30T06:51:45;9.80;;;5.60;;
69769;SDS011;57282;52.514;13.458;2022-08-30T06:54:12;12.20;;;6.63;;
69769;SDS011;57282;52.514;13.458;2022-08-30T06:56:39;10.43;;;5.88;;
69769;SDS011;57282;52.514;13.458;2022-08-30T06:59:09;9.65;;;5.80;;
69769;SDS011;57282;52.514;13.458;2022-08-30T07:01:36;12.60;;;6.20;;
69769;SDS011;57282;52.514;13.458;2022-08-30T07:04:04;11.43;;;6.22;;
69769;SDS011;57282;52.514;13.458;2022-08-30T07:06:31;12.80;;;6.75;;
69769;SDS011;57282;52.514;13.458;2022-08-30T07:08:58;10.57;;;6.18;;
69769;SDS011;57282;52.514;13.458;2022-08-30T07:11:29;11.90;;;6.25;;
69769;SDS011;57282;52.514;13.458;2022-08-30T07:13:59;11.63;;;6.30;;
69769;SDS011;57282;52.514;13.458;2022-08-30T07:16:28;11.43;;;5.47;;
69769;SDS011;57282;52.514;13.458;2022-08-30T07:18:56;11.55;;;6.50;;
69769;SDS011;57282;52.514;13.458;2022-08-30T07:21:25;10.80;;;6.47;;
69769;SDS011;57282;52.514;13.458;2022-08-30T07:23:57;11.73;;;6.07;;
69769;SDS011;57282;52.514;13.458;2022-08-30T07:26:27;11.10;;;5.60;;
69769;SDS011;57282;52.514;13.458;2022-08-30T07:28:57;11.00;;;5.80;;
69769;SDS011;57282;52.514;13.458;2022-08-30T07:31:24;9.25;;;6.03;;
69769;SDS011;57282;52.514;13.458;2022-08-30T07:33:51;8.50;;;4.82;;
69769;SDS011;57282;52.514;13.458;2022-08-30T07:36:18;8.80;;;4.10;;
69769;SDS011;57282;52.514;13.458;2022-08-30T07:38:49;8.93;;;4.60;;
69769;SDS011;57282;52.514;13.458;2022-08-30T07:41:19;10.70;;;4.65;;
69769;SDS011;57282;52.514;13.458;2022-08-30T07:43:50;8.57;;;4.82;;
69769;SDS011;57282;52.514;13.458;2022-08-30T07:46:17;10.80;;;5.13;;
69769;SDS011;57282;52.514;13.458;2022-08-30T07:48:45;10.13;;;5.15;;
69769;SDS011;57282;52.514;13.458;2022-08-30T07:51:13;12.57;;;6.23;;
69769;SDS011;57282;52.514;13.458;2022-08-30T07:53:42;9.82;;;5.28;;
69769;SDS011;57282;52.514;13.458;2022-08-30T07:56:11;10.18;;;5.93;;
69769;SDS011;57282;52.514;13.458;2022-08-30T07:58:38;9.85;;;5.70;;
69769;SDS011;57282;52.514;13.458;2022-08-30T08:01:05;9.85;;;6.10;;
69769;SDS011;57282;52.514;13.458;2022-08-30T08:03:34;9.67;;;5.20;;
69769;SDS011;57282;52.514;13.458;2022-08-30T08:06:04;9.45;;;5.18;;
69769;SDS011;57282;52.514;13.458;2022-08-30T08:08:34;10.57;;;5.20;;
69769;SDS011;57282;52.514;13.458;2022-08-30T08:11:04;8.20;;;4.20;;
69769;SDS011;57282;52.514;13.458;2022-08-30T08:13:35;8.25;;;4.65;;
69769;SDS011;57282;52.514;13.458;2022-08-30T08:16:02;8.63;;;3.90;;
69769;SDS011;57282;52.514;13.458;2022-08-30T08:18:29;5.97;;;3.35;;
69769;SDS011;57282;52.514;13.458;2022-08-30T08:20:57;5.32;;;3.25;;
69769;SDS011;57282;52.514;13.458;2022-08-30T08:23:25;6.47;;;3.55;;
69769;SDS011;57282;52.514;13.458;2022-08-30T08:25:53;5.88;;;2.50;;
69769;SDS011;57282;52.514;13.458;2022-08-30T08:28:20;9.30;;;2.53;;
69769;SDS011;57282;52.514;13.458;2022-08-30T08:30:51;5.80;;;1.95;;
69769;SDS011;57282;52.514;13.458;2022-08-30T08:33:21;4.55;;;2.08;;
69769;SDS011;57282;52.514;13.458;2022-08-30T08:35:48;3.60;;;1.65;;
69769;SDS011;57282;52.514;13.458;2022-08-30T08:38:15;6.13;;;2.67;;
69769;SDS011;57282;52.514;13.458;2022-08-30T08:40:44;4.03;;;1.50;;
69769;SDS011;57282;52.514;13.458;2022-08-30T08:43:23;4.60;;;1.75;;
69769;SDS011;57282;52.514;13.458;2022-08-30T08:45:55;4.13;;;1.83;;
69769;SDS011;57282;52.514;13.458;2022-08-30T08:48:31;6.32;;;1.75;;
69769;SDS011;57282;52.514;13.458;2022-08-30T08:51:07;5.60;;;2.00;;
69769;SDS011;57282;52.514;13.458;2022-08-30T08:53:56;3.13;;;1.50;;
69769;SDS011;57282;52.514;13.458;2022-08-30T08:56:29;3.72;;;1.50;;
69769;SDS011;57282;52.514;13.458;2022-08-30T08:58:57;5.35;;;1.95;;
69769;SDS011;57282;52.514;13.458;2022-08-30T09:01:27;3.63;;;1.50;;
69769;SDS011;57282;52.514;13.458;2022-08-30T09:03:56;3.58;;;1.20;;
69769;SDS011;57282;52.514;13.458;2022-08-30T09:09:25;7.07;;;1.20;;
69769;SDS011;57282;52.514;13.458;2022-08-30T09:11:56;2.70;;;1.40;;
69769;SDS011;57282;52.514;13.458;2022-08-30T09:14:24;10.38;;;1.40;;
69769;SDS011;57282;52.514;13.458;2022-08-30T09:16:58;3.05;;;1.10;;
69769;SDS011;57282;52.514;13.458;2022-08-30T09:19:29;6.17;;;1.03;;
69769;SDS011;57282;52.514;13.458;2022-08-30T09:22:05;2.65;;;1.02;;
69769;SDS011;57282;52.514;13.458;2022-08-30T09:24:42;4.07;;;0.70;;
69769;SDS011;57282;52.514;13.458;2022-08-30T09:27:13;3.95;;;0.57;;
69769;SDS011;57282;52.514;13.458;2022-08-30T09:29:58;2.60;;;0.80;;
69769;SDS011;57282;52.514;13.458;2022-08-30T09:32:33;2.70;;;0.57;;
69769;SDS011;57282;52.514;13.458;2022-08-30T09:35:07;2.63;;;0.77;;
69769;SDS011;57282;52.514;13.458;2022-08-30T09:37:44;1.80;;;0.57;;
69769;SDS011;57282;52.514;13.458;2022-08-30T09:40:20;4.22;;;0.70;;
69769;SDS011;57282;52.514;13.458;2022-08-30T09:43:04;2.63;;;0.68;;
69769;SDS011;57282;52.514;13.458;2022-08-30T09:45:36;1.40;;;0.50;;
69769;SDS011;57282;52.514;13.458;2022-08-30T09:48:23;2.63;;;0.50;;
69769;SDS011;57282;52.514;13.458;2022-08-30T09:51:00;1.40;;;0.68;;
69769;SDS011;57282;52.514;13.458;2022-08-30T09:53:56;2.47;;;0.93;;
69769;SDS011;57282;52.514;13.458;2022-08-30T09:56:37;2.92;;;0.90;;
69769;SDS011;57282;52.514;13.458;2022-08-30T09:59:17;2.73;;;0.57;;
69769;SDS011;57282;52.514;13.458;2022-08-30T10:02:05;3.10;;;0.90;;
69769;SDS011;57282;52.514;13.458;2022-08-30T10:05:06;2.05;;;0.82;;
69769;SDS011;57282;52.514;13.458;2022-08-30T10:07:42;2.70;;;0.60;;
69769;SDS011;57282;52.514;13.458;2022-08-30T10:10:21;1.65;;;0.80;;
69769;SDS011;57282;52.514;13.458;2022-08-30T10:13:01;1.33;;;0.50;;
69769;SDS011;57282;52.514;13.458;2022-08-30T10:15:50;3.88;;;0.57;;
69769;SDS011;57282;52.514;13.458;2022-08-30T10:18:24;2.45;;;0.80;;
69769;SDS011;57282;52.514;13.458;2022-08-30T10:21:01;1.50;;;0.45;;
69769;SDS011;57282;52.514;13.458;2022-08-30T10:23:40;2.47;;;0.77;;
69769;SDS011;57282;52.514;13.458;2022-08-30T10:26:14;1.97;;;0.80;;
69769;SDS011;57282;52.514;13.458;2022-08-30T10:28:54;0.90;;;0.32;;
69769;SDS011;57282;52.514;13.458;2022-08-30T10:31:29;2.17;;;0.65;;
69769;SDS011;57282;52.514;13.458;2022-08-30T10:34:03;4.07;;;0.60;;
69769;SDS011;57282;52.514;13.458;2022-08-30T10:36:39;1.30;;;0.70;;
69769;SDS011;57282;52.514;13.458;2022-08-30T10:39:21;2.37;;;0.90;;
69769;SDS011;57282;52.514;13.458;2022-08-30T10:41:57;3.20;;;1.10;;
69769;SDS011;57282;52.514;13.458;2022-08-30T10:44:33;2.83;;;0.85;;
69769;SDS011;57282;52.514;13.458;2022-08-30T10:47:07;4.47;;;1.02;;
69769;SDS011;57282;52.514;13.458;2022-08-30T10:49:48;2.22;;;0.70;;
69769;SDS011;57282;52.514;13.458;2022-08-30T10:52:30;1.37;;;0.50;;
69769;SDS011;57282;52.514;13.458;2022-08-30T10:55:05;6.47;;;0.57;;
69769;SDS011;57282;52.514;13.458;2022-08-30T10:57:39;5.85;;;1.00;;
69769;SDS011;57282;52.514;13.458;2022-08-30T11:00:07;3.90;;;0.68;;
69769;SDS011;57282;52.514;13.458;2022-08-30T11:05:54;3.27;;;0.90;;
69769;SDS011;57282;52.514;13.458;2022-08-30T11:08:44;1.80;;;0.60;;
69769;SDS011;57282;52.514;13.458;2022-08-30T11:11:34;2.58;;;0.80;;
69769;SDS011;57282;52.514;13.458;2022-08-30T11:14:19;1.98;;;0.60;;
69769;SDS011;57282;52.514;13.458;2022-08-30T11:16:48;2.55;;;0.80;;
69769;SDS011;57282;52.514;13.458;2022-08-30T11:19:20;1.90;;;0.70;;
69769;SDS011;57282;52.514;13.458;2022-08-30T11:21:51;3.58;;;0.98;;
69769;SDS011;57282;52.514;13.458;2022-08-30T11:33:29;2.93;;;0.50;;
69769;SDS011;57282;52.514;13.458;2022-08-30T11:36:09;2.88;;;1.00;;
69769;SDS011;57282;52.514;13.458;2022-08-30T11:39:01;1.95;;;0.90;;
69769;SDS011;57282;52.514;13.458;2022-08-30T11:41:35;3.92;;;0.88;;
69769;SDS011;57282;52.514;13.458;2022-08-30T11:44:11;1.98;;;0.90;;
69769;SDS011;57282;52.514;13.458;2022-08-30T11:46:57;4.23;;;0.80;;
69769;SDS011;57282;52.514;13.458;2022-08-30T11:49:35;2.70;;;0.55;;
69769;SDS011;57282;52.514;13.458;2022-08-30T11:52:24;3.10;;;0.98;;
69769;SDS011;57282;52.514;13.458;2022-08-30T11:55:21;3.03;;;0.60;;
69769;SDS011;57282;52.514;13.458;2022-08-30T11:58:04;2.03;;;0.80;;
69769;SDS011;57282;52.514;13.458;2022-08-30T12:00:45;2.00;;;0.80;;
69769;SDS011;57282;52.514;13.458;2022-08-30T12:05:59;1.42;;;0.70;;
69769;SDS011;57282;52.514;13.458;2022-08-30T12:08:39;1.80;;;0.90;;
69769;SDS011;57282;52.514;13.458;2022-08-30T12:14:49;4.30;;;0.57;;
69769;SDS011;57282;52.514;13.458;2022-08-30T12:17:29;2.28;;;0.80;;
69769;SDS011;57282;52.514;13.458;2022-08-30T12:20:37;1.92;;;0.82;;
69769;SDS011;57282;52.514;13.458;2022-08-30T12:23:12;2.92;;;1.08;;
69769;SDS011;57282;52.514;13.458;2022-08-30T12:25:45;3.03;;;1.10;;
69769;SDS011;57282;52.514;13.458;2022-08-30T12:28:14;3.27;;;0.70;;
69769;SDS011;57282;52.514;13.458;2022-08-30T12:30:49;2.63;;;0.60;;
69769;SDS011;57282;52.514;13.458;2022-08-30T12:33:28;3.22;;;0.70;;
69769;SDS011;57282;52.514;13.458;2022-08-30T12:36:05;2.83;;;0.40;;
69769;SDS011;57282;52.514;13.458;2022-08-30T12:38:33;5.13;;;0.80;;
69769;SDS011;57282;52.514;13.458;2022-08-30T12:41:00;2.07;;;0.80;;
69769;SDS011;57282;52.514;13.458;2022-08-30T12:43:30;2.28;;;0.60;;
69769;SDS011;57282;52.514;13.458;2022-08-30T12:46:01;1.63;;;0.60;;
69769;SDS011;57282;52.514;13.458;2022-08-30T12:48:36;2.65;;;0.63;;
69769;SDS011;57282;52.514;13.458;2022-08-30T12:51:06;2.05;;;0.68;;
69769;SDS011;57282;52.514;13.458;2022-08-30T12:53:35;2.33;;;0.70;;
69769;SDS011;57282;52.514;13.458;2022-08-30T12:56:07;3.63;;;0.63;;
69769;SDS011;57282;52.514;13.458;2022-08-30T12:58:39;2.53;;;0.93;;
69769;SDS011;57282;52.514;13.458;2022-08-30T13:01:14;1.70;;;0.77;;
69769;SDS011;57282;52.514;13.458;2022-08-30T13:03:54;1.90;;;0.77;;
69769;SDS011;57282;52.514;13.458;2022-08-30T13:06:36;2.13;;;0.77;;
69769;SDS011;57282;52.514;13.458;2022-08-30T13:09:20;1.88;;;0.68;;
69769;SDS011;57282;52.514;13.458;2022-08-30T13:11:52;2.03;;;0.80;;
69769;SDS011;57282;52.514;13.458;2022-08-30T13:14:28;2.58;;;0.95;;
69769;SDS011;57282;52.514;13.458;2022-08-30T13:17:08;3.13;;;0.90;;
69769;SDS011;57282;52.514;13.458;2022-08-30T13:19:54;4.80;;;1.10;;
69769;SDS011;57282;52.514;13.458;2022-08-30T13:22:25;3.95;;;1.13;;
69769;SDS011;57282;52.514;13.458;2022-08-30T13:24:55;2.15;;;0.82;;
69769;SDS011;57282;52.514;13.458;2022-08-30T13:27:23;2.40;;;1.00;;
69769;SDS011;57282;52.514;13.458;2022-08-30T13:29:51;2.80;;;1.00;;
69769;SDS011;57282;52.514;13.458;2022-08-30T13:32:19;1.87;;;1.07;;
69769;SDS011;57282;52.514;13.458;2022-08-30T13:34:47;5.05;;;1.25;;
69769;SDS011;57282;52.514;13.458;2022-08-30T13:37:15;3.60;;;1.48;;
69769;SDS011;57282;52.514;13.458;2022-08-30T13:39:45;3.92;;;0.90;;
69769;SDS011;57282;52.514;13.458;2022-08-30T13:42:12;3.20;;;1.40;;
69769;SDS011;57282;52.514;13.458;2022-08-30T13:44:39;4.63;;;0.93;;
69769;SDS011;57282;52.514;13.458;2022-08-30T13:47:07;2.58;;;1.00;;
69769;SDS011;57282;52.514;13.458;2022-08-30T13:49:37;3.75;;;1.20;;
69769;SDS011;57282;52.514;13.458;2022-08-30T13:52:07;2.80;;;1.35;;
69769;SDS011;57282;52.514;13.458;2022-08-30T13:54:35;4.13;;;1.00;;
69769;SDS011;57282;52.514;13.458;2022-08-30T13:57:02;4.27;;;0.90;;
69769;SDS011;57282;52.514;13.458;2022-08-30T13:59:30;2.50;;;0.75;;
69769;SDS011;57282;52.514;13.458;2022-08-30T14:01:58;3.13;;;1.08;;
69769;SDS011;57282;52.514;13.458;2022-08-30T14:04:26;3.63;;;1.20;;
69769;SDS011;57282;52.514;13.458;2022-08-30T14:06:55;2.95;;;1.40;;
69769;SDS011;57282;52.514;13.458;2022-08-30T14:09:21;3.47;;;1.40;;
69769;SDS011;57282;52.514;13.458;2022-08-30T14:11:48;2.60;;;1.13;;
69769;SDS011;57282;52.514;13.458;2022-08-30T14:14:15;3.78;;;1.40;;
69769;SDS011;57282;52.514;13.458;2022-08-30T14:16:42;2.80;;;1.50;;
69769;SDS011;57282;52.514;13.458;2022-08-30T14:19:12;4.85;;;2.30;;
69769;SDS011;57282;52.514;13.458;2022-08-30T14:21:40;4.27;;;1.40;;
69769;SDS011;57282;52.514;13.458;2022-08-30T14:24:10;4.18;;;1.80;;
69769;SDS011;57282;52.514;13.458;2022-08-30T14:26:37;3.72;;;1.98;;
69769;SDS011;57282;52.514;13.458;2022-08-30T14:29:10;4.00;;;1.95;;
69769;SDS011;57282;52.514;13.458;2022-08-30T14:31:39;4.47;;;2.10;;
69769;SDS011;57282;52.514;13.458;2022-08-30T14:34:07;3.03;;;1.50;;
69769;SDS011;57282;52.514;13.458;2022-08-30T14:36:37;4.32;;;1.92;;
69769;SDS011;57282;52.514;13.458;2022-08-30T14:39:07;3.65;;;2.40;;
69769;SDS011;57282;52.514;13.458;2022-08-30T14:41:40;8.40;;;2.50;;
69769;SDS011;57282;52.514;13.458;2022-08-30T14:44:10;3.10;;;1.85;;
69769;SDS011;57282;52.514;13.458;2022-08-30T14:46:37;4.73;;;1.83;;
69769;SDS011;57282;52.514;13.458;2022-08-30T14:49:04;5.30;;;1.80;;
69769;SDS011;57282;52.514;13.458;2022-08-30T14:51:31;3.13;;;1.80;;
69769;SDS011;57282;52.514;13.458;2022-08-30T14:53:57;3.92;;;1.70;;
69769;SDS011;57282;52.514;13.458;2022-08-30T14:56:25;4.20;;;1.77;;
69769;SDS011;57282;52.514;13.458;2022-08-30T14:58:53;5.23;;;1.50;;
69769;SDS011;57282;52.514;13.458;2022-08-30T15:01:24;3.38;;;1.88;;
69769;SDS011;57282;52.514;13.458;2022-08-30T15:03:51;3.67;;;1.80;;
69769;SDS011;57282;52.514;13.458;2022-08-30T15:06:18;5.00;;;1.58;;
69769;SDS011;57282;52.514;13.458;2022-08-30T15:08:45;4.88;;;2.17;;
69769;SDS011;57282;52.514;13.458;2022-08-30T15:11:13;4.70;;;1.70;;
69769;SDS011;57282;52.514;13.458;2022-08-30T15:13:45;2.60;;;1.63;;
69769;SDS011;57282;52.514;13.458;2022-08-30T15:16:13;4.18;;;2.03;;